createdAt,value
2023-02-13T00:04:24.646Z,25.03
2023-02-13T00:07:27.771Z,25.05
2023-02-13T00:14:37.413Z,24.95
2023-02-13T00:18:14.815Z,25.03
2023-02-13T00:25:02.669Z,24.98
2023-02-13T00:28:21.750Z,24.98
2023-02-13T00:34:40.175Z,24.96
2023-02-13T00:47:54.744Z,24.96
2023-02-13T00:50:50.131Z,24.94
2023-02-13T00:53:42.666Z,24.96
2023-02-13T00:56:52.611Z,24.95
2023-02-13T00:59:43.455Z,24.96
2023-02-13T01:02:36.769Z,24.93
2023-02-13T01:05:32.825Z,24.98
2023-02-13T01:08:38.795Z,24.95
2023-02-13T01:11:29.521Z,24.95
2023-02-13T01:14:21.988Z,24.94
2023-02-13T01:17:16.443Z,24.94
2023-02-13T01:20:09.477Z,24.95
2023-02-13T01:23:12.526Z,24.95
2023-02-13T01:26:10.981Z,24.93
2023-02-13T01:32:25.482Z,24.91
2023-02-13T01:38:23.617Z,24.93
2023-02-13T01:41:20.480Z,24.92
2023-02-13T01:44:43.491Z,24.88
2023-02-13T01:47:48.712Z,24.90
2023-02-13T01:50:46.073Z,24.93
2023-02-13T01:53:52.351Z,24.93
2023-02-13T02:00:23.935Z,24.90
2023-02-13T02:04:01.781Z,24.88
2023-02-13T02:07:00.568Z,24.89
2023-02-13T02:09:53.064Z,24.92
2023-02-13T02:13:37.918Z,24.84
2023-02-13T02:16:34.490Z,24.83
2023-02-13T02:19:34.186Z,24.80
2023-02-13T02:22:48.377Z,24.81
2023-02-13T02:29:41.130Z,24.83
2023-02-13T02:32:44.859Z,24.83
2023-02-13T02:36:00.189Z,24.83
2023-02-13T02:39:06.942Z,24.85
2023-02-13T02:42:18.100Z,24.86
2023-02-13T02:45:14.060Z,24.84
2023-02-13T02:48:29.735Z,24.86
2023-02-13T02:51:25.313Z,24.88
2023-02-13T02:54:38.789Z,24.84
2023-02-13T02:57:51.782Z,24.80
2023-02-13T03:01:08.009Z,24.76
2023-02-13T03:04:24.882Z,24.80
2023-02-13T03:07:24.046Z,24.74
2023-02-13T03:10:34.693Z,24.77
2023-02-13T03:13:48.732Z,24.78
2023-02-13T03:21:22.318Z,24.69
2023-02-13T04:07:42.466Z,24.73
2023-02-13T05:10:07.302Z,24.76
2023-02-13T05:13:13.868Z,24.69
2023-02-13T05:16:18.831Z,24.73
2023-02-13T05:22:57.773Z,24.76
2023-02-13T05:29:36.964Z,24.66
2023-02-13T05:32:59.818Z,24.65
2023-02-13T05:40:16.788Z,24.65
2023-02-13T05:51:45.904Z,24.67
2023-02-13T05:54:37.395Z,24.57
2023-02-13T05:57:27.133Z,24.57
2023-02-13T06:22:28.596Z,24.56
2023-02-13T06:25:28.592Z,24.55
2023-02-13T06:28:42.983Z,24.51
2023-02-13T06:43:33.720Z,24.50
2023-02-13T06:50:16.875Z,24.58
2023-02-13T06:53:13.433Z,24.52
2023-02-13T06:56:49.616Z,24.53
2023-02-13T07:03:35.208Z,24.56
2023-02-13T07:07:15.763Z,24.54
2023-02-13T07:21:07.243Z,24.54
2023-02-13T07:27:30.056Z,24.56
2023-02-13T08:25:49.357Z,24.54
2023-02-13T09:28:03.552Z,24.65
2023-02-13T09:37:55.635Z,24.66
2023-02-13T09:55:07.019Z,24.70
2023-02-13T09:58:17.436Z,24.71
2023-02-13T10:13:10.256Z,24.81
2023-02-13T11:01:29.652Z,24.72
2023-02-13T11:39:34.769Z,24.58
2023-02-13T11:46:26.076Z,24.62
2023-02-13T11:49:19.794Z,24.57
2023-02-13T12:20:35.830Z,24.50
2023-02-13T12:27:35.354Z,24.42
2023-02-13T12:31:31.377Z,24.54
2023-02-13T12:35:00.874Z,24.45
2023-02-13T12:52:30.464Z,24.34
2023-02-13T12:59:55.850Z,24.35
2023-02-13T13:02:59.713Z,24.42
2023-02-13T13:06:16.750Z,24.40
2023-02-13T13:16:46.439Z,24.40
2023-02-13T13:19:56.839Z,24.40
2023-02-13T13:23:04.301Z,24.40
2023-02-13T13:26:10.193Z,24.37
2023-02-13T13:32:39.546Z,24.38
2023-02-13T13:35:41.588Z,24.44
2023-02-13T13:38:40.540Z,24.51
2023-02-13T13:41:43.169Z,24.41
2023-02-13T13:45:23.280Z,24.46
2023-02-13T13:48:31.915Z,24.48
2023-02-13T13:54:37.699Z,24.48
2023-02-13T14:01:08.750Z,24.59
2023-02-13T14:04:18.345Z,24.55
2023-02-13T14:14:56.829Z,24.52
2023-02-13T14:17:55.291Z,24.47
2023-02-13T14:21:27.442Z,24.43
2023-02-13T14:24:38.720Z,24.48
2023-02-13T14:27:49.738Z,24.45
2023-02-13T14:30:41.059Z,24.51
2023-02-13T14:33:44.068Z,24.73
2023-02-13T14:43:57.290Z,24.68
2023-02-13T14:46:51.786Z,24.72
2023-02-13T14:49:50.261Z,24.85
2023-02-13T14:52:48.502Z,24.80
2023-02-13T14:55:54.147Z,24.91
2023-02-13T15:02:35.528Z,24.90
2023-02-13T15:05:38.609Z,24.82
2023-02-13T15:08:31.247Z,24.63
2023-02-13T15:11:46.831Z,24.57
2023-02-13T15:18:13.853Z,24.75
2023-02-13T15:21:17.835Z,24.76
2023-02-13T15:24:08.820Z,24.74
2023-02-13T15:27:05.848Z,24.53
2023-02-13T15:30:00.636Z,24.57
2023-02-13T15:33:04.426Z,24.67
2023-02-13T15:36:04.105Z,24.62
2023-02-13T15:39:04.554Z,24.55
2023-02-13T15:48:24.495Z,24.71
2023-02-13T15:51:32.668Z,24.77
2023-02-13T15:57:57.351Z,24.73
2023-02-13T16:00:47.245Z,24.79
2023-02-13T16:03:37.871Z,24.79
2023-02-13T16:06:42.158Z,24.84
2023-02-13T16:09:39.796Z,24.80
2023-02-13T16:12:31.617Z,24.84
2023-02-13T16:15:30.935Z,24.86
2023-02-13T16:18:33.318Z,24.89
2023-02-13T16:21:26.853Z,24.92
2023-02-13T16:24:20.840Z,24.75
2023-02-13T16:27:18.516Z,24.73
2023-02-13T16:30:09.624Z,24.78
2023-02-13T16:33:13.435Z,24.83
2023-02-13T16:36:22.399Z,24.79
2023-02-13T16:39:24.698Z,24.87
2023-02-13T16:42:30.466Z,24.68
2023-02-13T16:45:26.027Z,24.81
2023-02-13T16:48:16.364Z,24.65
2023-02-13T16:51:05.384Z,24.64
2023-02-13T16:53:58.698Z,24.64
2023-02-13T16:56:53.142Z,24.68
2023-02-13T16:59:52.970Z,24.57
2023-02-13T17:02:41.792Z,24.67
2023-02-13T17:05:31.102Z,24.56
2023-02-13T17:08:19.735Z,24.60
2023-02-13T17:11:09.870Z,24.61
2023-02-13T17:13:59.795Z,24.61
2023-02-13T17:16:48.872Z,24.52
2023-02-13T17:19:37.407Z,24.57
2023-02-13T17:22:34.183Z,24.55
2023-02-13T17:25:24.579Z,24.57
2023-02-13T17:28:14.682Z,24.65
2023-02-13T17:31:04.678Z,24.66
2023-02-13T17:33:53.324Z,24.63
2023-02-13T17:36:41.906Z,24.60
2023-02-13T17:39:31.456Z,24.61
2023-02-13T17:42:23.432Z,24.63
2023-02-13T17:45:15.862Z,24.66
2023-02-13T17:48:21.613Z,24.75
2023-02-13T17:51:12.045Z,24.69
2023-02-13T17:54:01.562Z,24.69
2023-02-13T17:56:50.816Z,24.73
2023-02-13T17:59:39.896Z,24.78
2023-02-13T18:02:33.254Z,24.78
2023-02-13T18:05:41.528Z,24.94
2023-02-13T18:08:30.215Z,24.94
2023-02-13T18:11:18.790Z,24.92
2023-02-13T18:14:07.342Z,24.96
2023-02-13T18:17:08.334Z,24.98
2023-02-13T18:19:58.050Z,25.07
2023-02-13T18:22:50.491Z,25.04
2023-02-13T18:25:39.114Z,25.19
2023-02-13T18:28:28.385Z,25.11
2023-02-13T18:31:17.149Z,25.18
2023-02-13T18:34:05.795Z,25.16
2023-02-13T18:36:54.453Z,25.25
2023-02-13T18:39:44.398Z,25.30
2023-02-13T18:42:33.057Z,25.30
2023-02-13T18:45:21.678Z,25.34
2023-02-13T18:48:10.244Z,25.40
2023-02-13T18:51:01.112Z,25.52
2023-02-13T18:53:49.900Z,25.57
2023-02-13T18:56:40.058Z,25.62
2023-02-13T18:59:28.929Z,25.73
2023-02-13T19:02:17.619Z,25.72
2023-02-13T19:05:06.468Z,25.68
2023-02-13T19:07:55.136Z,25.84
2023-02-13T19:10:43.737Z,25.84
2023-02-13T19:13:34.164Z,25.93
2023-02-13T19:16:23.012Z,25.82
2023-02-13T19:19:12.227Z,25.60
2023-02-13T19:22:00.894Z,25.68
2023-02-13T19:24:49.564Z,25.68
2023-02-13T19:27:39.147Z,25.71
2023-02-13T19:30:29.171Z,25.71
2023-02-13T19:33:17.898Z,25.72
2023-02-13T19:36:11.954Z,25.67
2023-02-13T19:39:02.720Z,25.67
2023-02-13T19:41:51.448Z,25.68
2023-02-13T19:44:40.237Z,25.69
2023-02-13T19:47:30.393Z,25.70
2023-02-13T19:50:19.154Z,25.70
2023-02-13T19:53:08.745Z,25.68
2023-02-13T19:56:00.765Z,25.64
2023-02-13T19:58:49.753Z,25.65
2023-02-13T20:01:38.524Z,25.72
2023-02-13T20:04:29.413Z,25.74
2023-02-13T20:07:18.074Z,25.71
2023-02-13T20:10:08.200Z,25.69
2023-02-13T20:12:56.918Z,25.72
2023-02-13T20:15:45.797Z,25.68
2023-02-13T20:18:35.656Z,25.68
2023-02-13T20:21:26.288Z,25.69
2023-02-13T20:24:14.937Z,25.76
2023-02-13T20:27:03.557Z,25.69
2023-02-13T20:29:58.850Z,25.71
2023-02-13T20:32:55.150Z,25.67
2023-02-13T20:35:43.743Z,25.72
2023-02-13T20:38:33.693Z,25.72
2023-02-13T20:41:24.176Z,25.73
2023-02-13T20:44:14.301Z,25.73
2023-02-13T20:47:02.882Z,25.72
2023-02-13T20:49:51.617Z,25.58
2023-02-13T20:52:40.636Z,25.53
2023-02-13T20:55:30.538Z,25.61
2023-02-13T20:58:19.161Z,25.52
2023-02-13T21:01:13.476Z,25.57
2023-02-13T21:04:02.482Z,25.55
2023-02-13T21:06:51.091Z,25.58
2023-02-13T21:09:39.902Z,25.53
2023-02-13T21:12:29.897Z,25.57
2023-02-13T21:15:18.775Z,25.39
2023-02-13T21:18:07.489Z,25.29
2023-02-13T21:20:57.419Z,25.18
2023-02-13T21:23:46.388Z,25.22
2023-02-13T21:26:35.452Z,25.10
2023-02-13T21:29:25.417Z,25.04
2023-02-13T21:32:14.253Z,25.00
2023-02-13T21:35:02.823Z,25.00
2023-02-13T21:37:51.402Z,24.97
2023-02-13T21:40:40.714Z,24.95
2023-02-13T21:43:29.246Z,24.91
2023-02-13T21:46:20.668Z,24.88
2023-02-13T21:49:13.673Z,24.92
2023-02-13T21:52:02.196Z,24.93
2023-02-13T21:54:50.824Z,24.88
2023-02-13T21:57:39.842Z,24.89
2023-02-13T22:00:28.448Z,24.86
2023-02-13T22:03:18.451Z,24.85
2023-02-13T22:06:07.621Z,24.84
2023-02-13T22:08:59.611Z,24.85
2023-02-13T22:11:49.967Z,24.79
2023-02-13T22:14:40.263Z,24.82
2023-02-13T22:17:33.604Z,24.86
2023-02-13T22:20:23.918Z,24.85
2023-02-13T22:23:12.675Z,24.78
2023-02-13T22:26:01.450Z,24.79
2023-02-13T22:28:50.320Z,24.76
2023-02-13T22:31:39.915Z,24.76
2023-02-13T22:34:28.638Z,24.77
2023-02-13T22:37:18.757Z,24.76
2023-02-13T22:40:08.429Z,24.79
2023-02-13T22:42:58.251Z,24.78
2023-02-13T22:45:46.980Z,24.74
2023-02-13T22:48:37.261Z,24.76
2023-02-13T22:51:28.239Z,24.76
2023-02-13T22:54:18.357Z,24.77
2023-02-13T22:57:07.160Z,24.76
2023-02-13T22:59:55.776Z,24.81
2023-02-13T23:02:44.515Z,24.77
2023-02-13T23:05:33.248Z,24.83
2023-02-13T23:08:21.921Z,24.79
2023-02-13T23:11:32.364Z,24.74
2023-02-13T23:14:24.053Z,24.77
2023-02-13T23:17:30.472Z,24.70
2023-02-13T23:20:20.499Z,24.72
2023-02-13T23:23:09.343Z,24.76
2023-02-13T23:25:57.994Z,24.72
2023-02-13T23:28:48.101Z,24.76
2023-02-13T23:31:36.949Z,24.69
2023-02-13T23:34:25.744Z,24.76
2023-02-13T23:37:14.382Z,24.71
2023-02-13T23:40:03.098Z,24.68
2023-02-13T23:42:51.794Z,24.72
2023-02-13T23:45:41.889Z,24.72
2023-02-13T23:48:30.594Z,24.69
2023-02-13T23:51:21.229Z,24.78
2023-02-13T23:54:10.119Z,24.74
2023-02-13T23:56:58.901Z,24.69
2023-02-13T23:59:47.505Z,24.73
